Time;durP1;ratioP1;P1;durP2;ratioP2;P2;SDS_P1;SDS_P2;PMS_P1;PMS_P2;Temp;Humidity;BMP_temperature;BMP_pressure;BME280_temperature;BME280_humidity;BME280_pressure;Samples;Min_cycle;Max_cycle;Signal;HPM_P1;HPM_P2
2023/05/22 00:01:25;;;;;;;42.92;38.45;;;16.10;99.90;;;;;;4993234;28;20038;-63
2023/05/22 00:03:52;;;;;;;48.95;39.78;;;16.70;99.90;;;;;;4993853;28;20034;-64
2023/05/22 00:06:17;;;;;;;43.70;38.85;;;16.70;99.90;;;;;;4993523;28;20468;-64
2023/05/22 00:08:43;;;;;;;43.92;39.25;;;16.20;99.90;;;;;;4993313;28;20042;-63
2023/05/22 00:11:09;;;;;;;44.30;39.45;;;16.10;99.90;;;;;;4992774;28;20117;-64
2023/05/22 00:13:35;;;;;;;46.88;41.80;;;16.30;99.90;;;;;;4993159;28;20133;-64
2023/05/22 00:16:00;;;;;;;58.47;43.03;;;16.20;99.90;;;;;;4992902;28;20043;-64
2023/05/22 00:18:26;;;;;;;46.47;41.45;;;17.20;99.90;;;;;;4992546;28;20030;-64
2023/05/22 00:20:52;;;;;;;50.05;43.13;;;16.70;99.90;;;;;;4992752;28;20034;-64
2023/05/22 00:23:18;;;;;;;47.42;42.17;;;16.10;99.90;;;;;;4993206;28;20152;-64
2023/05/22 00:25:43;;;;;;;50.22;42.53;;;16.70;99.90;;;;;;4992861;28;20054;-64
2023/05/22 00:28:10;;;;;;;52.55;43.75;;;16.90;99.90;;;;;;4992512;28;20368;-64
2023/05/22 00:30:36;;;;;;;46.60;41.47;;;16.60;99.90;;;;;;4992986;28;20057;-64
2023/05/22 00:33:02;;;;;;;51.30;44.15;;;16.60;99.90;;;;;;5008129;28;20034;-64
2023/05/22 00:35:28;;;;;;;47.97;42.80;;;16.40;99.90;;;;;;4992776;28;20512;-64
2023/05/22 00:37:54;;;;;;;57.45;45.70;;;16.30;99.90;;;;;;4992265;28;20096;-64
2023/05/22 00:40:20;;;;;;;52.90;41.63;;;17.10;99.90;;;;;;4991307;28;20042;-64
2023/05/22 00:42:45;;;;;;;49.35;43.85;;;17.00;99.90;;;;;;4992341;28;20042;-65
2023/05/22 00:45:15;;;;;;;55.65;46.25;;;17.20;99.90;;;;;;4992560;28;20042;-65
2023/05/22 00:47:42;;;;;;;52.15;44.20;;;17.00;99.90;;;;;;4992095;28;20406;-65
2023/05/22 00:50:10;;;;;;;63.35;46.05;;;16.30;99.90;;;;;;4991444;28;20722;-65
2023/05/22 00:52:40;;;;;;;59.67;45.92;;;17.30;99.90;;;;;;4992533;28;20073;-65
2023/05/22 00:55:07;;;;;;;56.15;44.33;;;17.30;99.90;;;;;;4987064;28;20158;-65
2023/05/22 00:57:33;;;;;;;54.60;44.40;;;16.50;99.90;;;;;;4992043;28;20049;-65
2023/05/22 01:00:01;;;;;;;46.05;39.90;;;16.60;99.90;;;;;;4992361;28;20479;-65
2023/05/22 01:02:31;;;;;;;44.08;39.28;;;17.90;99.90;;;;;;4992695;28;20065;-65
2023/05/22 01:04:57;;;;;;;44.35;37.63;;;18.40;99.90;;;;;;4981521;28;20491;-64
2023/05/22 01:07:23;;;;;;;42.95;38.33;;;17.90;99.90;;;;;;4988948;28;20042;-65
2023/05/22 01:09:51;;;;;;;40.28;36.08;;;17.00;99.90;;;;;;4991253;28;20042;-64
2023/05/22 01:12:41;;;;;;;38.65;34.83;;;18.80;99.90;;;;;;4992056;28;20122;-64
2023/05/22 01:15:45;;;;;;;36.85;33.20;;;17.80;99.90;;;;;;4992291;28;20054;-64
2023/05/22 01:18:18;;;;;;;34.08;30.88;;;17.00;99.90;;;;;;4973880;28;20141;-64
2023/05/22 01:20:57;;;;;;;30.73;27.70;;;17.70;99.90;;;;;;4991471;28;20053;-64
2023/05/22 01:24:10;;;;;;;33.30;29.92;;;17.80;99.90;;;;;;4992266;28;20079;-65
2023/05/22 01:27:16;;;;;;;34.75;31.35;;;17.80;99.90;;;;;;4991684;28;20035;-65
2023/05/22 01:30:07;;;;;;;34.20;30.63;;;17.60;99.90;;;;;;4991380;28;20117;-63
2023/05/22 01:32:35;;;;;;;35.50;32.20;;;17.30;99.90;;;;;;4992130;28;20034;-64
2023/05/22 01:35:09;;;;;;;41.90;37.47;;;18.30;99.90;;;;;;4991675;28;20042;-64
2023/05/22 01:37:35;;;;;;;42.97;38.50;;;17.60;99.90;;;;;;4991179;28;20050;-64
2023/05/22 01:40:02;;;;;;;48.05;39.20;;;18.30;99.90;;;;;;4989512;28;20069;-64
2023/05/22 01:42:28;;;;;;;42.05;37.55;;;18.10;99.90;;;;;;4991693;28;20485;-64
2023/05/22 01:44:53;;;;;;;41.53;37.08;;;18.00;99.90;;;;;;4991210;28;20113;-64
2023/05/22 01:47:19;;;;;;;48.15;39.83;;;16.90;99.90;;;;;;4991110;28;20058;-64
2023/05/22 01:49:46;;;;;;;60.75;45.33;;;17.20;99.90;;;;;;4991389;28;20058;-64
2023/05/22 01:52:25;;;;;;;64.38;48.42;;;17.10;99.90;;;;;;4991550;28;20054;-64
2023/05/22 01:55:01;;;;;;;75.63;50.25;;;17.70;99.90;;;;;;4991053;28;20145;-64
2023/05/22 01:57:31;;;;;;;67.63;49.83;;;16.80;99.90;;;;;;4991084;28;20038;-64
2023/05/22 02:00:02;;;;;;;80.05;52.10;;;16.70;99.90;;;;;;4986442;28;20038;-64
2023/05/22 02:02:30;;;;;;;81.25;51.88;;;17.00;99.90;;;;;;4986373;28;20052;-65
2023/05/22 02:04:59;;;;;;;77.07;51.72;;;18.00;99.90;;;;;;4991638;28;20077;-64
2023/05/22 02:07:27;;;;;;;74.82;52.70;;;17.20;99.90;;;;;;4991454;28;20377;-64
2023/05/22 02:09:55;;;;;;;80.57;50.42;;;18.10;99.90;;;;;;4990628;28;20049;-65
2023/05/22 02:12:22;;;;;;;79.65;51.50;;;16.80;99.90;;;;;;4986395;28;20093;-64
2023/05/22 02:14:48;;;;;;;75.30;51.72;;;17.90;99.90;;;;;;4990898;28;20532;-64
2023/05/22 02:17:16;;;;;;;78.53;50.60;;;18.10;99.90;;;;;;4990613;28;20085;-64
2023/05/22 02:19:43;;;;;;;67.63;51.38;;;18.00;99.90;;;;;;4990143;28;20048;-65
2023/05/22 02:22:12;;;;;;;66.88;51.50;;;16.50;99.90;;;;;;4976590;28;20432;-65
2023/05/22 02:24:40;;;;;;;74.50;52.90;;;17.50;99.90;;;;;;4971636;28;20113;-65
2023/05/22 02:27:06;;;;;;;77.15;53.70;;;16.70;99.90;;;;;;4975745;28;20064;-64
2023/05/22 02:29:31;;;;;;;77.70;51.97;;;17.60;99.90;;;;;;4989051;28;20042;-64
2023/05/22 02:31:57;;;;;;;73.38;50.85;;;17.10;99.90;;;;;;4990635;28;20050;-64
2023/05/22 02:34:23;;;;;;;72.85;52.25;;;17.50;99.90;;;;;;4990761;28;20050;-64
2023/05/22 02:36:49;;;;;;;60.75;49.85;;;18.40;99.90;;;;;;4990956;28;20045;-64
2023/05/22 02:39:18;;;;;;;60.47;50.03;;;16.80;99.90;;;;;;4989560;28;20050;-65
2023/05/22 02:41:44;;;;;;;61.00;48.38;;;17.50;99.90;;;;;;4990856;28;20097;-65
2023/05/22 02:44:10;;;;;;;62.00;46.60;;;18.50;99.90;;;;;;4990520;28;20384;-65
2023/05/22 02:46:35;;;;;;;58.50;44.33;;;17.30;99.90;;;;;;4985572;28;20058;-65
2023/05/22 02:49:01;;;;;;;55.90;42.65;;;18.30;99.90;;;;;;4986519;28;20413;-65
2023/05/22 02:51:26;;;;;;;55.63;40.70;;;17.30;99.90;;;;;;4990228;28;20129;-65
2023/05/22 02:53:52;;;;;;;52.70;41.45;;;17.60;99.90;;;;;;4990103;28;20042;-64
2023/05/22 02:56:19;;;;;;;54.88;41.15;;;18.90;99.90;;;;;;4990323;28;20076;-64
2023/05/22 02:58:45;;;;;;;51.25;40.72;;;18.70;99.90;;;;;;4990027;28;20688;-64
2023/05/22 03:01:10;;;;;;;54.30;41.38;;;18.60;99.90;;;;;;4990162;28;20038;-64
2023/05/22 03:03:36;;;;;;;54.53;38.97;;;17.70;99.90;;;;;;4990315;28;20121;-64
2023/05/22 03:06:03;;;;;;;61.92;40.22;;;17.10;99.90;;;;;;4990366;28;20042;-64
2023/05/22 03:08:30;;;;;;;61.20;38.97;;;18.40;99.90;;;;;;4989931;28;20046;-64
2023/05/22 03:10:57;;;;;;;62.45;37.05;;;18.70;99.90;;;;;;4989221;28;20053;-64
2023/05/22 03:13:23;;;;;;;59.63;36.70;;;17.20;99.90;;;;;;4990168;28;20512;-64
2023/05/22 03:15:48;;;;;;;55.90;37.50;;;18.50;99.90;;;;;;4989675;28;20840;-65
2023/05/22 03:18:15;;;;;;;72.10;38.17;;;17.60;99.90;;;;;;4989522;28;20442;-64
2023/05/22 03:20:40;;;;;;;62.08;36.70;;;17.80;99.90;;;;;;4989337;28;20129;-65
2023/05/22 03:23:06;;;;;;;59.88;37.75;;;17.60;99.90;;;;;;4990244;28;20078;-64
2023/05/22 03:25:31;;;;;;;65.60;38.75;;;18.70;99.90;;;;;;4989850;28;20084;-64
2023/05/22 03:27:57;;;;;;;61.95;39.30;;;18.60;99.90;;;;;;4990153;28;20579;-64
2023/05/22 03:30:22;;;;;;;69.50;40.17;;;18.70;99.90;;;;;;4991310;28;20050;-64
2023/05/22 03:32:48;;;;;;;60.22;39.83;;;17.40;99.90;;;;;;4993749;28;20046;-64
2023/05/22 03:35:18;;;;;;;65.00;39.90;;;18.60;99.90;;;;;;4994551;28;20468;-64
2023/05/22 03:37:46;;;;;;;66.82;42.00;;;18.20;99.90;;;;;;4993059;28;20054;-64
2023/05/22 03:40:12;;;;;;;62.13;40.60;;;18.60;99.90;;;;;;4993413;28;20042;-64
2023/05/22 03:42:38;;;;;;;63.85;44.22;;;16.90;99.90;;;;;;4993373;28;20044;-64
2023/05/22 03:45:04;;;;;;;69.68;46.60;;;17.40;99.90;;;;;;4993517;28;20046;-64
2023/05/22 03:47:29;;;;;;;57.13;45.78;;;16.80;99.90;;;;;;4993409;28;20054;-64
2023/05/22 03:49:55;;;;;;;67.72;49.92;;;17.00;99.90;;;;;;4993585;28;20050;-64
2023/05/22 03:52:21;;;;;;;64.13;49.40;;;16.70;99.90;;;;;;4993721;28;20041;-64
2023/05/22 03:54:46;;;;;;;65.28;50.92;;;18.10;99.90;;;;;;4992550;28;20407;-63
2023/05/22 03:57:13;;;;;;;67.07;53.10;;;17.80;99.90;;;;;;4992063;28;20408;-64
2023/05/22 03:59:38;;;;;;;69.18;52.42;;;17.70;99.90;;;;;;4994031;28;20114;-64
2023/05/22 04:02:04;;;;;;;69.15;55.00;;;16.80;99.90;;;;;;4993906;28;20505;-65
2023/05/22 04:04:31;;;;;;;67.55;56.00;;;17.80;99.90;;;;;;4993076;28;20086;-64
2023/05/22 04:06:56;;;;;;;73.68;53.85;;;17.00;99.90;;;;;;4993903;28;20185;-63
2023/05/22 04:09:25;;;;;;;66.25;55.33;;;16.60;99.90;;;;;;4993388;28;20544;-64
2023/05/22 04:11:52;;;;;;;66.10;53.95;;;17.20;99.90;;;;;;4993855;28;20053;-64
2023/05/22 04:14:18;;;;;;;68.95;55.63;;;17.70;99.90;;;;;;4992098;28;20061;-64
2023/05/22 04:16:43;;;;;;;57.78;50.72;;;16.90;99.90;;;;;;4993274;28;20046;-64
2023/05/22 04:19:09;;;;;;;64.47;53.05;;;17.90;99.90;;;;;;4991828;28;20038;-64
2023/05/22 04:21:34;;;;;;;59.72;50.20;;;17.90;99.90;;;;;;4993133;28;20046;-65
2023/05/22 04:24:05;;;;;;;60.90;52.55;;;17.00;99.90;;;;;;4991979;28;20410;-64
2023/05/22 04:26:32;;;;;;;62.28;51.38;;;16.90;99.90;;;;;;4993235;28;20053;-64
2023/05/22 04:28:57;;;;;;;57.70;51.08;;;17.90;99.90;;;;;;4993035;28;20061;-64
2023/05/22 04:31:23;;;;;;;62.28;53.17;;;18.20;99.90;;;;;;4992834;28;20042;-64
2023/05/22 04:33:49;;;;;;;57.65;49.13;;;18.70;99.90;;;;;;4989340;28;20046;-64
2023/05/22 04:36:16;;;;;;;58.63;49.00;;;17.70;99.90;;;;;;4992877;28;20480;-64
2023/05/22 04:38:43;;;;;;;61.17;47.38;;;17.90;99.90;;;;;;4992634;28;20065;-65
2023/05/22 04:41:13;;;;;;;58.17;47.88;;;17.00;99.90;;;;;;4992678;28;20042;-64
2023/05/22 04:43:38;;;;;;;54.75;48.10;;;17.00;99.90;;;;;;4993333;28;20042;-64
2023/05/22 04:46:05;;;;;;;68.90;46.78;;;17.80;99.90;;;;;;4992853;28;20038;-64
2023/05/22 04:48:31;;;;;;;59.15;46.30;;;17.80;99.90;;;;;;4991408;28;20040;-64
2023/05/22 04:50:57;;;;;;;57.83;45.35;;;17.80;99.90;;;;;;4992422;28;20046;-63
2023/05/22 04:53:23;;;;;;;61.63;43.95;;;17.50;99.90;;;;;;4990287;28;20045;-64
2023/05/22 04:55:48;;;;;;;59.38;43.67;;;16.70;99.90;;;;;;4993151;28;20484;-64
2023/05/22 04:58:14;;;;;;;63.25;43.28;;;17.80;99.90;;;;;;4992865;28;20125;-64
2023/05/22 05:00:40;;;;;;;51.25;39.95;;;16.90;99.90;;;;;;4992203;28;20038;-64
2023/05/22 05:03:06;;;;;;;49.45;40.17;;;16.90;99.90;;;;;;4992327;28;20404;-64
2023/05/22 05:05:32;;;;;;;47.55;38.00;;;17.30;99.90;;;;;;4992761;28;20042;-63
2023/05/22 05:07:58;;;;;;;41.60;36.78;;;17.20;99.90;;;;;;4992296;28;20046;-64
2023/05/22 05:10:24;;;;;;;41.83;34.42;;;17.50;99.90;;;;;;4989880;28;20483;-64
2023/05/22 05:12:49;;;;;;;42.95;34.35;;;18.10;99.90;;;;;;4991167;28;20064;-64
2023/05/22 05:15:15;;;;;;;44.00;34.88;;;18.10;99.90;;;;;;4992533;28;20411;-64
2023/05/22 05:17:41;;;;;;;38.10;33.47;;;18.00;99.90;;;;;;4990468;28;20077;-64
2023/05/22 05:20:07;;;;;;;44.03;33.08;;;17.80;99.90;;;;;;4979685;28;20150;-64
2023/05/22 05:22:33;;;;;;;42.65;32.40;;;18.10;99.90;;;;;;4987494;28;20045;-61
2023/05/22 05:24:58;;;;;;;36.80;32.13;;;17.30;99.90;;;;;;4991681;28;20558;-61
2023/05/22 05:27:24;;;;;;;38.45;32.53;;;18.00;99.90;;;;;;4987592;28;20042;-61
2023/05/22 05:29:50;;;;;;;38.13;30.25;;;17.70;99.90;;;;;;4985759;28;20125;-61
2023/05/22 05:32:16;;;;;;;37.35;30.58;;;18.90;99.90;;;;;;4972671;28;20121;-61
2023/05/22 05:34:41;;;;;;;33.83;29.10;;;17.70;99.90;;;;;;4989178;28;20049;-61
2023/05/22 05:37:07;;;;;;;36.80;29.75;;;17.80;99.90;;;;;;4991688;28;20054;-61
2023/05/22 05:39:33;;;;;;;33.70;28.08;;;17.80;99.90;;;;;;4985358;28;20110;-61
2023/05/22 05:41:59;;;;;;;31.95;28.50;;;17.90;99.90;;;;;;4986213;28;20077;-61
2023/05/22 05:44:24;;;;;;;31.33;27.35;;;18.10;99.90;;;;;;4988538;28;20472;-61
2023/05/22 05:46:51;;;;;;;30.88;27.48;;;18.80;99.90;;;;;;4990785;28;20149;-61
2023/05/22 05:49:18;;;;;;;30.75;27.73;;;18.10;99.90;;;;;;4988765;28;20038;-61
2023/05/22 05:51:44;;;;;;;33.40;29.98;;;18.60;99.90;;;;;;4989397;28;20038;-62
2023/05/22 05:54:09;;;;;;;31.42;28.38;;;18.30;99.90;;;;;;4986636;28;20049;-61
2023/05/22 05:56:36;;;;;;;29.70;26.77;;;18.10;99.90;;;;;;4988281;28;20045;-60
2023/05/22 05:59:02;;;;;;;25.95;23.48;;;18.20;99.90;;;;;;4988413;28;20065;-61
2023/05/22 06:01:30;;;;;;;26.95;23.95;;;18.20;99.90;;;;;;4989552;28;20069;-61
2023/05/22 06:03:55;;;;;;;25.45;22.95;;;18.20;99.90;;;;;;4987608;28;20037;-61
2023/05/22 06:06:24;;;;;;;27.65;24.73;;;18.20;99.90;;;;;;4991645;28;20492;-61
2023/05/22 06:08:50;;;;;;;28.25;24.55;;;18.30;99.90;;;;;;4989881;28;20050;-61
2023/05/22 06:11:15;;;;;;;27.50;24.65;;;18.20;99.90;;;;;;4989839;28;20057;-61
2023/05/22 06:13:41;;;;;;;30.38;24.75;;;18.50;99.90;;;;;;4990157;28;20065;-61
2023/05/22 06:16:06;;;;;;;28.48;25.48;;;18.20;99.90;;;;;;4985421;28;20295;-61
2023/05/22 06:18:32;;;;;;;29.42;26.25;;;18.40;99.90;;;;;;4987765;28;20053;-61
2023/05/22 06:20:58;;;;;;;29.23;26.08;;;18.20;99.90;;;;;;4986227;28;20415;-61
2023/05/22 06:23:23;;;;;;;27.58;24.63;;;18.10;99.90;;;;;;4988773;28;20069;-61
2023/05/22 06:25:49;;;;;;;28.73;25.35;;;18.30;99.90;;;;;;4987085;28;20148;-60
2023/05/22 06:28:14;;;;;;;31.42;26.17;;;18.60;99.90;;;;;;4989962;28;20038;-61
2023/05/22 06:30:40;;;;;;;35.00;27.75;;;18.30;99.90;;;;;;4990070;28;20037;-61
2023/05/22 06:33:06;;;;;;;31.17;27.80;;;18.50;99.90;;;;;;4984600;28;20519;-61
2023/05/22 06:35:32;;;;;;;31.25;27.83;;;18.10;99.90;;;;;;4987979;28;20045;-61
2023/05/22 06:37:57;;;;;;;32.63;28.13;;;18.10;99.90;;;;;;4986599;28;20051;-61
2023/05/22 06:40:23;;;;;;;30.95;27.70;;;18.20;99.90;;;;;;4988501;28;20038;-60
2023/05/22 06:42:49;;;;;;;31.20;28.00;;;18.10;99.90;;;;;;4988671;28;20092;-62
2023/05/22 06:45:16;;;;;;;30.90;28.05;;;18.10;99.90;;;;;;4990561;28;20400;-62
2023/05/22 06:47:42;;;;;;;31.60;28.25;;;18.10;99.90;;;;;;4984413;28;20081;-62
2023/05/22 06:50:09;;;;;;;29.90;27.10;;;18.50;99.90;;;;;;4986872;28;20539;-61
2023/05/22 06:52:35;;;;;;;30.23;26.67;;;18.20;99.90;;;;;;4987126;28;20489;-61
2023/05/22 06:55:04;;;;;;;30.58;27.27;;;19.20;99.90;;;;;;4986247;28;20042;-61
2023/05/22 06:57:33;;;;;;;32.03;27.50;;;18.50;99.90;;;;;;4989018;28;20085;-61
2023/05/22 06:59:59;;;;;;;33.30;27.00;;;18.70;99.90;;;;;;4989368;28;20247;-61
2023/05/22 07:02:25;;;;;;;37.47;27.50;;;18.30;99.90;;;;;;4987374;28;20073;-61
2023/05/22 07:04:52;;;;;;;38.85;28.00;;;18.30;99.90;;;;;;4983946;28;20039;-61
2023/05/22 07:07:18;;;;;;;44.10;29.50;;;18.60;99.90;;;;;;4987306;28;20045;-61
2023/05/22 07:09:43;;;;;;;42.80;29.08;;;18.50;99.90;;;;;;4988074;28;20042;-61
2023/05/22 07:12:09;;;;;;;42.60;29.48;;;18.40;99.90;;;;;;4987448;28;20086;-61
2023/05/22 07:14:35;;;;;;;42.65;28.58;;;18.10;99.90;;;;;;4989500;28;20030;-60
2023/05/22 07:17:00;;;;;;;41.47;29.33;;;17.80;99.90;;;;;;4983531;28;20050;-60
2023/05/22 07:19:26;;;;;;;38.33;28.33;;;18.50;99.90;;;;;;4984490;28;20177;-61
2023/05/22 07:21:53;;;;;;;40.45;29.20;;;18.60;99.90;;;;;;4986338;28;20128;-61
2023/05/22 07:24:18;;;;;;;42.70;28.42;;;18.20;99.90;;;;;;4989824;28;20180;-65
2023/05/22 07:26:45;;;;;;;39.17;29.33;;;17.80;99.90;;;;;;4986535;28;20137;-61
2023/05/22 07:29:12;;;;;;;36.50;29.30;;;18.20;99.90;;;;;;4987509;28;20034;-61
2023/05/22 07:31:38;;;;;;;38.03;28.92;;;18.00;99.90;;;;;;4989261;28;20038;-61
2023/05/22 07:34:04;;;;;;;36.50;29.25;;;18.60;99.90;;;;;;4983575;28;20140;-61
2023/05/22 07:36:30;;;;;;;37.97;28.40;;;17.90;99.90;;;;;;4989341;28;20041;-61
2023/05/22 07:38:56;;;;;;;42.63;29.30;;;18.20;99.90;;;;;;4988820;28;20031;-61
2023/05/22 07:41:23;;;;;;;39.17;29.30;;;18.10;99.90;;;;;;4988819;28;20092;-61
2023/05/22 07:43:49;;;;;;;37.67;29.67;;;18.20;99.90;;;;;;4982317;28;20053;-61
2023/05/22 07:46:14;;;;;;;40.45;29.63;;;19.00;99.90;;;;;;4983279;28;20038;-61
2023/05/22 07:48:40;;;;;;;33.97;29.23;;;18.50;99.90;;;;;;4983908;28;20129;-60
2023/05/22 07:51:06;;;;;;;33.15;28.55;;;18.40;99.90;;;;;;4984996;28;20043;-61
2023/05/22 07:53:32;;;;;;;38.05;29.25;;;18.80;99.90;;;;;;4989141;28;20093;-61
2023/05/22 07:55:57;;;;;;;34.13;29.33;;;18.40;99.90;;;;;;4986466;28;20408;-61
2023/05/22 07:58:23;;;;;;;31.38;28.10;;;18.40;99.90;;;;;;4985697;28;20034;-61
2023/05/22 08:00:49;;;;;;;32.22;28.92;;;18.60;99.90;;;;;;4984740;28;20503;-59
2023/05/22 08:03:15;;;;;;;32.38;29.17;;;18.80;99.90;;;;;;4986824;28;20385;-58
2023/05/22 08:05:40;;;;;;;32.50;29.20;;;19.10;99.90;;;;;;4989299;28;20045;-59
2023/05/22 08:08:06;;;;;;;35.08;28.70;;;19.40;99.90;;;;;;4987179;28;20170;-58
2023/05/22 08:10:32;;;;;;;31.52;28.50;;;19.50;99.90;;;;;;4986407;28;20416;-60
2023/05/22 08:13:01;;;;;;;33.05;29.08;;;18.90;99.90;;;;;;4983934;28;20053;-61
2023/05/22 08:15:26;;;;;;;35.60;28.40;;;19.00;99.90;;;;;;4985693;28;20416;-61
2023/05/22 08:17:52;;;;;;;31.13;27.80;;;19.10;99.90;;;;;;4989281;28;20052;-61
2023/05/22 08:20:18;;;;;;;34.35;28.30;;;19.60;99.90;;;;;;4989978;28;20034;-61
2023/05/22 08:22:43;;;;;;;29.15;26.33;;;19.80;99.90;;;;;;4992463;28;20042;-61
2023/05/22 08:25:09;;;;;;;28.73;25.67;;;19.80;99.90;;;;;;4992633;28;20072;-61
2023/05/22 08:27:34;;;;;;;28.88;25.95;;;20.80;99.90;;;;;;4991620;28;20488;-62
2023/05/22 08:30:03;;;;;;;25.80;23.25;;;19.80;99.90;;;;;;4993268;28;20042;-61
2023/05/22 08:32:28;;;;;;;26.50;23.60;;;19.60;99.90;;;;;;4991786;28;20050;-61
2023/05/22 08:34:54;;;;;;;24.98;22.52;;;20.10;99.90;;;;;;4991489;28;20053;-61
2023/05/22 08:37:20;;;;;;;27.08;24.27;;;19.90;99.90;;;;;;4992117;28;20053;-61
2023/05/22 08:39:45;;;;;;;26.92;24.05;;;20.20;99.90;;;;;;4991013;28;20044;-61
2023/05/22 08:42:11;;;;;;;27.27;24.55;;;20.30;99.90;;;;;;4991354;28;20397;-62
2023/05/22 08:44:36;;;;;;;24.13;21.67;;;20.40;99.90;;;;;;4991797;28;20080;-62
2023/05/22 08:47:08;;;;;;;24.23;21.83;;;20.90;99.90;;;;;;4983688;28;20135;-62
2023/05/22 08:49:34;;;;;;;23.95;21.52;;;21.30;99.90;;;;;;4985566;28;20050;-62
2023/05/22 08:52:08;;;;;;;25.95;23.10;;;21.40;99.90;;;;;;4988927;28;20042;-61
2023/05/22 08:54:39;;;;;;;26.52;23.65;;;21.40;99.90;;;;;;4987647;28;20053;-61
2023/05/22 08:57:05;;;;;;;26.33;23.70;;;21.30;99.90;;;;;;4986002;28;20046;-61
2023/05/22 08:59:31;;;;;;;28.52;25.48;;;21.30;99.90;;;;;;4986699;28;20125;-61
2023/05/22 09:01:57;;;;;;;26.58;23.98;;;21.30;99.90;;;;;;4990500;28;20793;-59
2023/05/22 09:04:24;;;;;;;25.85;23.48;;;21.40;99.90;;;;;;4989166;28;20034;-61
2023/05/22 09:06:50;;;;;;;29.95;27.20;;;21.40;99.90;;;;;;4987244;28;20740;-61
2023/05/22 09:09:16;;;;;;;27.50;24.88;;;21.40;99.90;;;;;;4988395;28;20042;-61
2023/05/22 09:11:42;;;;;;;29.08;26.58;;;21.20;99.90;;;;;;4991181;28;20038;-63
2023/05/22 09:14:09;;;;;;;29.13;26.50;;;21.00;99.90;;;;;;4990022;28;20089;-61
2023/05/22 09:16:48;;;;;;;29.75;27.17;;;21.20;99.90;;;;;;4986651;28;20038;-60
2023/05/22 09:19:14;;;;;;;28.27;25.45;;;21.10;99.90;;;;;;4985123;28;20109;-61
2023/05/22 09:21:43;;;;;;;29.00;26.27;;;21.00;99.90;;;;;;4988985;28;20141;-61
2023/05/22 09:24:12;;;;;;;27.00;24.67;;;20.90;99.90;;;;;;4973481;28;20046;-61
2023/05/22 09:26:38;;;;;;;27.98;25.67;;;20.90;3.90;;;;;;4989945;28;20053;-61
2023/05/22 09:29:06;;;;;;;28.27;25.88;;;20.90;99.90;;;;;;4987788;28;20500;-61
2023/05/22 09:31:37;;;;;;;26.75;24.42;;;21.00;35.90;;;;;;4986153;28;20050;-61
2023/05/22 09:34:06;;;;;;;25.60;23.55;;;20.80;1.00;;;;;;4985518;28;20085;-61
2023/05/22 09:36:32;;;;;;;27.63;25.35;;;21.10;1.00;;;;;;4989599;28;20042;-61
2023/05/22 09:39:03;;;;;;;26.33;24.02;;;21.10;99.90;;;;;;4988829;28;20042;-61
2023/05/22 09:41:32;;;;;;;24.13;22.08;;;21.20;92.50;;;;;;4969129;28;20047;-61
2023/05/22 09:43:58;;;;;;;24.02;22.20;;;21.20;99.90;;;;;;4985885;28;20041;-61
2023/05/22 09:46:24;;;;;;;23.95;22.08;;;21.20;99.90;;;;;;4986612;28;20058;-61
2023/05/22 09:48:53;;;;;;;24.45;22.55;;;21.20;1.00;;;;;;4982984;28;20042;-60
2023/05/22 09:51:22;;;;;;;24.15;22.25;;;21.10;99.90;;;;;;4983657;28;20046;-60
2023/05/22 09:53:50;;;;;;;22.48;20.63;;;21.20;65.60;;;;;;4987588;28;20045;-60
2023/05/22 09:56:17;;;;;;;20.48;18.77;;;21.40;1.00;;;;;;4980458;28;20044;-60
2023/05/22 09:58:45;;;;;;;20.15;18.55;;;21.80;99.90;;;;;;4987733;28;20129;-60
2023/05/22 10:01:12;;;;;;;22.27;20.58;;;22.00;1.00;;;;;;4984092;28;20440;-61
2023/05/22 10:03:41;;;;;;;20.40;18.55;;;22.00;22.10;;;;;;4987612;28;20034;-60
2023/05/22 10:06:08;;;;;;;18.63;16.85;;;22.20;99.90;;;;;;4988109;28;20042;-61
2023/05/22 10:08:42;;;;;;;21.00;19.00;;;22.30;1.00;;;;;;4987933;28;20057;-61
2023/05/22 10:11:09;;;;;;;20.30;18.45;;;22.60;99.90;;;;;;4982190;28;20120;-61
2023/05/22 10:13:36;;;;;;;17.15;15.75;;;22.60;99.90;;;;;;4982495;28;20046;-61
2023/05/22 10:16:03;;;;;;;16.88;15.48;;;22.70;56.80;;;;;;4983657;28;20222;-61
2023/05/22 10:18:29;;;;;;;19.77;18.20;;;22.80;1.00;;;;;;4986159;28;20049;-61
2023/05/22 10:20:56;;;;;;;22.73;20.92;;;23.10;99.90;;;;;;4984662;28;20034;-61
2023/05/22 10:23:23;;;;;;;19.67;17.88;;;23.00;99.90;;;;;;4985226;28;20125;-61
2023/05/22 10:25:49;;;;;;;17.60;15.90;;;22.80;99.90;;;;;;4986766;28;20384;-61
2023/05/22 10:28:29;;;;;;;25.73;23.50;;;22.80;69.10;;;;;;4988126;28;20453;-61
2023/05/22 10:31:08;;;;;;;20.27;18.63;;;22.80;1.10;;;;;;4983735;28;20061;-61
2023/05/22 10:33:40;;;;;;;26.83;24.45;;;22.80;1.00;;;;;;4986614;28;20523;-61
2023/05/22 10:36:18;;;;;;;29.50;27.05;;;22.60;1.00;;;;;;4986473;28;20096;-60
2023/05/22 10:39:13;;;;;;;27.63;25.33;;;22.30;1.00;;;;;;4982191;28;20042;-61
2023/05/22 10:41:39;;;;;;;29.05;26.42;;;22.10;8.30;;;;;;4984699;28;20423;-61
2023/05/22 10:44:05;;;;;;;29.80;27.00;;;22.10;99.90;;;;;;4987053;28;20121;-60
2023/05/22 10:46:34;;;;;;;31.17;28.17;;;21.90;99.90;;;;;;4986181;28;20050;-60
2023/05/22 10:49:00;;;;;;;28.98;26.20;;;21.90;99.90;;;;;;4987935;28;20162;-60
2023/05/22 10:51:26;;;;;;;29.63;26.80;;;21.80;99.90;;;;;;4984487;28;20113;-60
2023/05/22 10:53:57;;;;;;;27.10;24.60;;;21.70;99.90;;;;;;4983629;28;20054;-60
2023/05/22 10:56:30;;;;;;;27.75;25.48;;;21.70;99.90;;;;;;4985234;28;20042;-60
2023/05/22 10:59:01;;;;;;;22.98;20.73;;;21.60;99.90;;;;;;4977334;28;20074;-60
2023/05/22 11:01:27;;;;;;;23.77;21.75;;;21.60;99.90;;;;;;4984041;28;20429;-60
2023/05/22 11:04:00;;;;;;;22.85;20.50;;;21.60;99.90;;;;;;4983691;28;20057;-60
2023/05/22 11:06:30;;;;;;;21.73;19.65;;;21.40;99.90;;;;;;4983019;28;20042;-60
2023/05/22 11:08:58;;;;;;;23.42;21.40;;;21.50;99.90;;;;;;4980657;28;20046;-60
2023/05/22 11:11:25;;;;;;;21.27;19.48;;;21.50;1.00;;;;;;4985765;28;20046;-60
2023/05/22 11:13:52;;;;;;;23.15;20.70;;;21.60;1.00;;;;;;4983792;28;20050;-60
2023/05/22 11:16:18;;;;;;;27.95;25.45;;;21.60;99.90;;;;;;4982536;28;20056;-61
2023/05/22 11:18:45;;;;;;;29.50;26.88;;;21.70;1.00;;;;;;4982141;28;20086;-60
2023/05/22 11:21:12;;;;;;;27.02;24.45;;;21.90;1.00;;;;;;4987136;28;20105;-61
2023/05/22 11:23:38;;;;;;;27.05;24.77;;;21.60;99.90;;;;;;4987753;28;20042;-60
2023/05/22 11:26:17;;;;;;;24.73;22.58;;;21.60;99.90;;;;;;4985045;28;20034;-61
2023/05/22 11:28:48;;;;;;;28.35;25.85;;;21.60;99.90;;;;;;4984538;28;20093;-61
2023/05/22 11:31:15;;;;;;;28.30;25.55;;;21.40;99.90;;;;;;4983211;28;20127;-60
2023/05/22 11:33:41;;;;;;;26.00;23.27;;;21.50;99.90;;;;;;4985581;28;20038;-64
2023/05/22 11:36:08;;;;;;;27.90;25.40;;;21.40;99.90;;;;;;4983664;28;20113;-64
2023/05/22 11:38:34;;;;;;;28.60;26.08;;;21.30;99.90;;;;;;4986269;28;20046;-64
2023/05/22 11:41:00;;;;;;;27.55;24.95;;;21.10;99.90;;;;;;4987028;28;20031;-64
2023/05/22 11:43:31;;;;;;;29.55;26.95;;;21.70;99.90;;;;;;4987682;28;20504;-64
2023/05/22 11:46:08;;;;;;;29.30;26.67;;;21.20;99.90;;;;;;4986248;28;20100;-65
2023/05/22 11:48:35;;;;;;;30.98;28.27;;;21.10;99.90;;;;;;4984761;28;20061;-65
2023/05/22 11:51:02;;;;;;;30.02;27.30;;;21.20;99.90;;;;;;4985100;28;20388;-65
2023/05/22 11:53:30;;;;;;;29.55;26.67;;;21.20;99.90;;;;;;4989791;28;20054;-65
2023/05/22 11:56:01;;;;;;;29.88;27.00;;;21.40;99.90;;;;;;4988870;28;20065;-65
2023/05/22 11:58:27;;;;;;;30.40;27.70;;;21.40;99.90;;;;;;4991367;28;20034;-64
2023/05/22 12:00:57;;;;;;;34.00;30.95;;;21.70;99.90;;;;;;4990617;28;20041;-64
2023/05/22 12:03:23;;;;;;;30.95;28.23;;;21.30;99.90;;;;;;4991389;28;20515;-64
2023/05/22 12:05:49;;;;;;;30.17;27.67;;;21.40;99.90;;;;;;4990429;28;20058;-64
2023/05/22 12:08:16;;;;;;;32.38;29.20;;;21.30;99.90;;;;;;4989157;28;20557;-64
2023/05/22 12:10:52;;;;;;;30.17;27.63;;;21.70;99.90;;;;;;4988065;28;20039;-64
2023/05/22 12:13:28;;;;;;;30.88;27.77;;;21.30;99.90;;;;;;4988549;28;20401;-64
2023/05/22 12:15:58;;;;;;;30.98;28.38;;;21.20;99.90;;;;;;4988376;28;20416;-64
2023/05/22 12:18:25;;;;;;;30.58;27.90;;;21.00;99.90;;;;;;4991090;28;20113;-64
2023/05/22 12:20:53;;;;;;;30.58;27.88;;;20.90;99.90;;;;;;4985497;28;20062;-64
2023/05/22 12:23:25;;;;;;;34.17;30.67;;;21.00;1.00;;;;;;4988048;28;20081;-64
2023/05/22 12:25:58;;;;;;;35.65;32.03;;;20.80;99.90;;;;;;4988401;28;20034;-64
2023/05/22 12:28:25;;;;;;;34.50;31.00;;;20.80;1.00;;;;;;4988877;28;20109;-64
2023/05/22 12:30:54;;;;;;;35.58;32.05;;;20.90;1.00;;;;;;4988983;28;20400;-64